sensor_id;sensor_type;location;lat;lon;timestamp;temperature;humidity
16287;DHT22;8251;53.568;10.018;2023-04-09T00:00:48;11.20;86.10
16287;DHT22;8251;53.568;10.018;2023-04-09T00:03:15;11.20;86.30
16287;DHT22;8251;53.568;10.018;2023-04-09T00:05:42;11.10;86.30
16287;DHT22;8251;53.568;10.018;2023-04-09T00:08:09;11.10;86.60
16287;DHT22;8251;53.568;10.018;2023-04-09T00:10:36;11.10;87.00
16287;DHT22;8251;53.568;10.018;2023-04-09T00:13:03;11.10;87.20
16287;DHT22;8251;53.568;10.018;2023-04-09T00:15:31;11.10;87.20
16287;DHT22;8251;53.568;10.018;2023-04-09T00:17:58;11.10;87.30
16287;DHT22;8251;53.568;10.018;2023-04-09T00:20:29;11.10;87.40
16287;DHT22;8251;53.568;10.018;2023-04-09T00:23:00;11.00;87.50
16287;DHT22;8251;53.568;10.018;2023-04-09T00:25:27;11.00;87.80
16287;DHT22;8251;53.568;10.018;2023-04-09T00:27:54;11.00;87.90
16287;DHT22;8251;53.568;10.018;2023-04-09T00:30:22;11.00;88.00
16287;DHT22;8251;53.568;10.018;2023-04-09T00:32:50;11.00;88.20
16287;DHT22;8251;53.568;10.018;2023-04-09T00:35:17;11.00;88.40
16287;DHT22;8251;53.568;10.018;2023-04-09T00:37:44;11.00;88.40
16287;DHT22;8251;53.568;10.018;2023-04-09T00:40:11;11.00;88.50
16287;DHT22;8251;53.568;10.018;2023-04-09T00:42:39;11.00;88.50
16287;DHT22;8251;53.568;10.018;2023-04-09T00:45:09;11.00;88.50
16287;DHT22;8251;53.568;10.018;2023-04-09T00:47:36;11.00;88.60
16287;DHT22;8251;53.568;10.018;2023-04-09T00:50:05;11.00;88.60
16287;DHT22;8251;53.568;10.018;2023-04-09T00:52:32;11.00;88.60
16287;DHT22;8251;53.568;10.018;2023-04-09T00:55:04;11.00;88.60
16287;DHT22;8251;53.568;10.018;2023-04-09T00:57:34;11.00;88.70
16287;DHT22;8251;53.568;10.018;2023-04-09T01:00:00;11.00;88.70
16287;DHT22;8251;53.568;10.018;2023-04-09T01:02:29;11.00;89.40
16287;DHT22;8251;53.568;10.018;2023-04-09T01:04:56;11.00;88.50
16287;DHT22;8251;53.568;10.018;2023-04-09T01:07:32;11.00;88.40
16287;DHT22;8251;53.568;10.018;2023-04-09T01:10:13;11.10;88.40
16287;DHT22;8251;53.568;10.018;2023-04-09T01:12:50;11.10;88.40
16287;DHT22;8251;53.568;10.018;2023-04-09T01:15:25;11.10;88.20
16287;DHT22;8251;53.568;10.018;2023-04-09T01:18:00;11.10;88.20
16287;DHT22;8251;53.568;10.018;2023-04-09T01:20:39;11.10;88.10
16287;DHT22;8251;53.568;10.018;2023-04-09T01:23:17;11.10;88.00
16287;DHT22;8251;53.568;10.018;2023-04-09T01:25:59;11.00;87.90
16287;DHT22;8251;53.568;10.018;2023-04-09T01:28:32;11.10;87.90
16287;DHT22;8251;53.568;10.018;2023-04-09T01:31:01;11.10;87.90
16287;DHT22;8251;53.568;10.018;2023-04-09T01:33:30;11.00;87.70
16287;DHT22;8251;53.568;10.018;2023-04-09T01:35:58;11.10;87.80
16287;DHT22;8251;53.568;10.018;2023-04-09T01:38:25;11.00;87.90
16287;DHT22;8251;53.568;10.018;2023-04-09T01:40:54;11.00;87.80
16287;DHT22;8251;53.568;10.018;2023-04-09T01:43:23;11.00;87.80
16287;DHT22;8251;53.568;10.018;2023-04-09T01:45:53;11.00;87.80
16287;DHT22;8251;53.568;10.018;2023-04-09T01:48:21;11.10;87.90
16287;DHT22;8251;53.568;10.018;2023-04-09T01:50:49;11.00;87.80
16287;DHT22;8251;53.568;10.018;2023-04-09T01:53:16;11.00;87.80
16287;DHT22;8251;53.568;10.018;2023-04-09T01:55:43;11.00;87.90
16287;DHT22;8251;53.568;10.018;2023-04-09T01:58:10;11.00;87.90
16287;DHT22;8251;53.568;10.018;2023-04-09T02:00:39;11.10;88.10
16287;DHT22;8251;53.568;10.018;2023-04-09T02:03:17;11.10;88.20
16287;DHT22;8251;53.568;10.018;2023-04-09T02:05:53;11.10;88.20
16287;DHT22;8251;53.568;10.018;2023-04-09T02:08:22;11.00;88.10
16287;DHT22;8251;53.568;10.018;2023-04-09T02:10:55;11.00;88.20
16287;DHT22;8251;53.568;10.018;2023-04-09T02:13:27;11.00;88.20
16287;DHT22;8251;53.568;10.018;2023-04-09T02:15:55;11.00;88.20
16287;DHT22;8251;53.568;10.018;2023-04-09T02:18:29;11.00;88.20
16287;DHT22;8251;53.568;10.018;2023-04-09T02:20:58;11.00;88.20
16287;DHT22;8251;53.568;10.018;2023-04-09T02:23:25;11.00;88.20
16287;DHT22;8251;53.568;10.018;2023-04-09T02:25:55;11.00;88.10
16287;DHT22;8251;53.568;10.018;2023-04-09T02:28:22;11.00;88.10
16287;DHT22;8251;53.568;10.018;2023-04-09T02:30:52;11.00;88.20
16287;DHT22;8251;53.568;10.018;2023-04-09T02:33:18;11.00;88.20
16287;DHT22;8251;53.568;10.018;2023-04-09T02:35:47;11.00;88.20
16287;DHT22;8251;53.568;10.018;2023-04-09T02:38:14;11.00;88.20
16287;DHT22;8251;53.568;10.018;2023-04-09T02:40:41;11.00;88.20
16287;DHT22;8251;53.568;10.018;2023-04-09T02:43:08;11.10;88.20
16287;DHT22;8251;53.568;10.018;2023-04-09T02:45:35;11.10;88.10
16287;DHT22;8251;53.568;10.018;2023-04-09T02:48:02;11.10;88.20
16287;DHT22;8251;53.568;10.018;2023-04-09T02:50:29;11.10;88.20
16287;DHT22;8251;53.568;10.018;2023-04-09T02:52:57;11.10;88.20
16287;DHT22;8251;53.568;10.018;2023-04-09T02:55:24;11.10;88.20
16287;DHT22;8251;53.568;10.018;2023-04-09T02:57:51;11.10;88.30
16287;DHT22;8251;53.568;10.018;2023-04-09T03:00:18;11.10;88.20
16287;DHT22;8251;53.568;10.018;2023-04-09T03:02:45;11.10;88.20
16287;DHT22;8251;53.568;10.018;2023-04-09T03:05:15;11.10;88.10
16287;DHT22;8251;53.568;10.018;2023-04-09T03:07:42;11.10;88.00
16287;DHT22;8251;53.568;10.018;2023-04-09T03:10:11;11.10;88.10
16287;DHT22;8251;53.568;10.018;2023-04-09T03:12:38;11.10;88.00
16287;DHT22;8251;53.568;10.018;2023-04-09T03:15:06;11.10;88.20
16287;DHT22;8251;53.568;10.018;2023-04-09T03:17:32;11.10;88.20
16287;DHT22;8251;53.568;10.018;2023-04-09T03:19:59;11.10;88.30
16287;DHT22;8251;53.568;10.018;2023-04-09T03:22:26;11.10;88.40
16287;DHT22;8251;53.568;10.018;2023-04-09T03:24:53;11.10;88.50
16287;DHT22;8251;53.568;10.018;2023-04-09T03:27:22;11.10;88.40
16287;DHT22;8251;53.568;10.018;2023-04-09T03:29:48;11.10;88.40
16287;DHT22;8251;53.568;10.018;2023-04-09T03:32:16;11.00;88.40
16287;DHT22;8251;53.568;10.018;2023-04-09T03:34:42;11.00;88.40
16287;DHT22;8251;53.568;10.018;2023-04-09T03:37:09;11.00;88.60
16287;DHT22;8251;53.568;10.018;2023-04-09T03:39:36;11.00;88.60
16287;DHT22;8251;53.568;10.018;2023-04-09T03:42:03;11.00;88.60
16287;DHT22;8251;53.568;10.018;2023-04-09T03:44:31;11.00;88.60
16287;DHT22;8251;53.568;10.018;2023-04-09T03:47:01;11.00;88.60
16287;DHT22;8251;53.568;10.018;2023-04-09T03:49:28;11.00;88.60
16287;DHT22;8251;53.568;10.018;2023-04-09T03:51:54;11.00;88.60
16287;DHT22;8251;53.568;10.018;2023-04-09T03:54:21;11.00;88.60
16287;DHT22;8251;53.568;10.018;2023-04-09T03:56:48;11.00;88.70
16287;DHT22;8251;53.568;10.018;2023-04-09T03:59:15;11.00;88.70
16287;DHT22;8251;53.568;10.018;2023-04-09T04:01:46;11.00;88.80
16287;DHT22;8251;53.568;10.018;2023-04-09T04:04:13;11.00;88.60
16287;DHT22;8251;53.568;10.018;2023-04-09T04:06:40;11.00;88.70
16287;DHT22;8251;53.568;10.018;2023-04-09T04:09:10;10.90;88.60
16287;DHT22;8251;53.568;10.018;2023-04-09T04:11:37;10.90;88.70
16287;DHT22;8251;53.568;10.018;2023-04-09T04:14:04;10.90;88.80
16287;DHT22;8251;53.568;10.018;2023-04-09T04:16:31;10.90;88.90
16287;DHT22;8251;53.568;10.018;2023-04-09T04:18:59;10.90;89.00
16287;DHT22;8251;53.568;10.018;2023-04-09T04:21:26;10.90;89.00
16287;DHT22;8251;53.568;10.018;2023-04-09T04:23:53;10.90;89.00
16287;DHT22;8251;53.568;10.018;2023-04-09T04:26:20;10.90;89.10
16287;DHT22;8251;53.568;10.018;2023-04-09T04:28:47;10.90;89.20
16287;DHT22;8251;53.568;10.018;2023-04-09T04:31:14;10.80;89.20
16287;DHT22;8251;53.568;10.018;2023-04-09T04:33:44;10.80;89.20
16287;DHT22;8251;53.568;10.018;2023-04-09T04:36:13;10.80;89.20
16287;DHT22;8251;53.568;10.018;2023-04-09T04:38:40;10.90;89.90
16287;DHT22;8251;53.568;10.018;2023-04-09T04:41:07;10.80;89.10
16287;DHT22;8251;53.568;10.018;2023-04-09T04:43:34;10.90;89.20
16287;DHT22;8251;53.568;10.018;2023-04-09T04:46:01;10.80;89.20
16287;DHT22;8251;53.568;10.018;2023-04-09T04:48:30;10.80;89.60
16287;DHT22;8251;53.568;10.018;2023-04-09T04:50:58;10.80;89.20
16287;DHT22;8251;53.568;10.018;2023-04-09T04:53:32;10.80;89.20
16287;DHT22;8251;53.568;10.018;2023-04-09T04:55:59;10.90;89.10
16287;DHT22;8251;53.568;10.018;2023-04-09T04:58:26;10.80;89.70
16287;DHT22;8251;53.568;10.018;2023-04-09T05:00:53;10.80;88.90
16287;DHT22;8251;53.568;10.018;2023-04-09T05:03:22;10.90;89.00
16287;DHT22;8251;53.568;10.018;2023-04-09T05:05:49;10.80;88.80
16287;DHT22;8251;53.568;10.018;2023-04-09T05:08:16;10.90;88.80
16287;DHT22;8251;53.568;10.018;2023-04-09T05:10:44;10.90;88.60
16287;DHT22;8251;53.568;10.018;2023-04-09T05:13:11;10.90;88.60
16287;DHT22;8251;53.568;10.018;2023-04-09T05:15:39;10.90;88.50
16287;DHT22;8251;53.568;10.018;2023-04-09T05:18:07;10.90;88.40
16287;DHT22;8251;53.568;10.018;2023-04-09T05:20:34;10.90;88.20
16287;DHT22;8251;53.568;10.018;2023-04-09T05:23:01;10.90;88.30
16287;DHT22;8251;53.568;10.018;2023-04-09T05:25:28;10.90;88.30
16287;DHT22;8251;53.568;10.018;2023-04-09T05:27:56;10.90;88.40
16287;DHT22;8251;53.568;10.018;2023-04-09T05:30:23;11.00;88.20
16287;DHT22;8251;53.568;10.018;2023-04-09T05:32:50;10.90;88.00
16287;DHT22;8251;53.568;10.018;2023-04-09T05:35:18;11.00;88.10
16287;DHT22;8251;53.568;10.018;2023-04-09T05:37:44;11.00;88.10
16287;DHT22;8251;53.568;10.018;2023-04-09T05:40:12;11.00;88.00
16287;DHT22;8251;53.568;10.018;2023-04-09T05:42:40;11.00;88.00
16287;DHT22;8251;53.568;10.018;2023-04-09T05:45:09;11.00;87.90
16287;DHT22;8251;53.568;10.018;2023-04-09T05:47:36;11.00;87.80
16287;DHT22;8251;53.568;10.018;2023-04-09T05:50:06;11.00;87.80
16287;DHT22;8251;53.568;10.018;2023-04-09T05:52:33;11.00;87.80
16287;DHT22;8251;53.568;10.018;2023-04-09T05:55:00;10.90;88.00
16287;DHT22;8251;53.568;10.018;2023-04-09T05:57:27;11.00;88.10
16287;DHT22;8251;53.568;10.018;2023-04-09T05:59:56;11.00;88.00
16287;DHT22;8251;53.568;10.018;2023-04-09T06:02:24;11.00;88.00
16287;DHT22;8251;53.568;10.018;2023-04-09T06:04:51;11.00;87.80
16287;DHT22;8251;53.568;10.018;2023-04-09T06:07:18;11.00;87.80
16287;DHT22;8251;53.568;10.018;2023-04-09T06:09:47;11.10;87.80
16287;DHT22;8251;53.568;10.018;2023-04-09T06:12:14;11.00;88.30
16287;DHT22;8251;53.568;10.018;2023-04-09T06:14:41;11.10;87.60
16287;DHT22;8251;53.568;10.018;2023-04-09T06:17:09;11.10;87.70
16287;DHT22;8251;53.568;10.018;2023-04-09T06:19:37;11.10;87.60
16287;DHT22;8251;53.568;10.018;2023-04-09T06:22:04;11.10;87.60
16287;DHT22;8251;53.568;10.018;2023-04-09T06:24:31;11.10;87.60
16287;DHT22;8251;53.568;10.018;2023-04-09T06:26:59;11.10;87.60
16287;DHT22;8251;53.568;10.018;2023-04-09T06:29:26;11.10;87.50
16287;DHT22;8251;53.568;10.018;2023-04-09T06:31:52;11.10;87.50
16287;DHT22;8251;53.568;10.018;2023-04-09T06:34:19;11.10;87.50
16287;DHT22;8251;53.568;10.018;2023-04-09T06:36:48;11.10;87.40
16287;DHT22;8251;53.568;10.018;2023-04-09T06:39:15;11.10;87.50
16287;DHT22;8251;53.568;10.018;2023-04-09T06:41:44;11.10;87.40
16287;DHT22;8251;53.568;10.018;2023-04-09T06:44:12;11.00;87.60
16287;DHT22;8251;53.568;10.018;2023-04-09T06:46:39;11.00;87.90
16287;DHT22;8251;53.568;10.018;2023-04-09T06:49:06;11.10;87.70
16287;DHT22;8251;53.568;10.018;2023-04-09T06:51:37;11.10;87.70
16287;DHT22;8251;53.568;10.018;2023-04-09T06:54:05;11.10;87.60
16287;DHT22;8251;53.568;10.018;2023-04-09T06:56:32;11.10;87.60
16287;DHT22;8251;53.568;10.018;2023-04-09T06:58:59;11.10;87.50
16287;DHT22;8251;53.568;10.018;2023-04-09T07:01:26;11.20;87.50
16287;DHT22;8251;53.568;10.018;2023-04-09T07:03:56;11.20;87.50
16287;DHT22;8251;53.568;10.018;2023-04-09T07:06:23;11.20;87.40
16287;DHT22;8251;53.568;10.018;2023-04-09T07:08:50;11.20;87.50
16287;DHT22;8251;53.568;10.018;2023-04-09T07:11:18;11.20;87.40
16287;DHT22;8251;53.568;10.018;2023-04-09T07:13:46;11.20;87.30
16287;DHT22;8251;53.568;10.018;2023-04-09T07:16:13;11.20;87.20
16287;DHT22;8251;53.568;10.018;2023-04-09T07:18:40;11.30;87.20
16287;DHT22;8251;53.568;10.018;2023-04-09T07:21:07;11.30;87.30
16287;DHT22;8251;53.568;10.018;2023-04-09T07:23:34;11.30;87.10
16287;DHT22;8251;53.568;10.018;2023-04-09T07:26:02;11.40;86.80
16287;DHT22;8251;53.568;10.018;2023-04-09T07:28:30;11.40;86.60
16287;DHT22;8251;53.568;10.018;2023-04-09T07:31:02;11.50;86.60
16287;DHT22;8251;53.568;10.018;2023-04-09T07:33:35;11.50;86.50
16287;DHT22;8251;53.568;10.018;2023-04-09T07:36:09;11.50;86.30
16287;DHT22;8251;53.568;10.018;2023-04-09T07:38:45;11.60;86.30
16287;DHT22;8251;53.568;10.018;2023-04-09T07:41:17;11.60;86.00
16287;DHT22;8251;53.568;10.018;2023-04-09T07:43:54;11.70;85.70
16287;DHT22;8251;53.568;10.018;2023-04-09T07:46:25;11.60;86.30
16287;DHT22;8251;53.568;10.018;2023-04-09T07:48:52;11.60;85.30
16287;DHT22;8251;53.568;10.018;2023-04-09T07:51:19;11.60;85.30
16287;DHT22;8251;53.568;10.018;2023-04-09T07:53:46;11.60;85.50
16287;DHT22;8251;53.568;10.018;2023-04-09T07:56:13;11.60;85.10
16287;DHT22;8251;53.568;10.018;2023-04-09T07:58:40;11.60;85.30
16287;DHT22;8251;53.568;10.018;2023-04-09T08:01:09;11.60;85.40
16287;DHT22;8251;53.568;10.018;2023-04-09T08:03:36;11.70;85.20
16287;DHT22;8251;53.568;10.018;2023-04-09T08:06:03;11.70;85.00
16287;DHT22;8251;53.568;10.018;2023-04-09T08:08:30;11.70;85.10
16287;DHT22;8251;53.568;10.018;2023-04-09T08:10:57;11.80;85.00
16287;DHT22;8251;53.568;10.018;2023-04-09T08:13:24;11.80;85.00
16287;DHT22;8251;53.568;10.018;2023-04-09T08:15:52;11.80;84.80
16287;DHT22;8251;53.568;10.018;2023-04-09T08:18:20;11.90;84.60
16287;DHT22;8251;53.568;10.018;2023-04-09T08:20:47;11.90;84.50
16287;DHT22;8251;53.568;10.018;2023-04-09T08:23:14;12.00;84.60
16287;DHT22;8251;53.568;10.018;2023-04-09T08:25:47;12.00;84.40
16287;DHT22;8251;53.568;10.018;2023-04-09T08:28:21;12.10;84.20
16287;DHT22;8251;53.568;10.018;2023-04-09T08:30:51;12.10;83.90
16287;DHT22;8251;53.568;10.018;2023-04-09T08:33:19;12.10;83.30
16287;DHT22;8251;53.568;10.018;2023-04-09T08:35:46;12.10;82.80
16287;DHT22;8251;53.568;10.018;2023-04-09T08:38:13;12.10;83.00
16287;DHT22;8251;53.568;10.018;2023-04-09T08:40:40;12.10;82.90
16287;DHT22;8251;53.568;10.018;2023-04-09T08:43:09;12.20;83.00
16287;DHT22;8251;53.568;10.018;2023-04-09T08:45:40;12.30;82.90
16287;DHT22;8251;53.568;10.018;2023-04-09T08:48:08;12.40;82.90
16287;DHT22;8251;53.568;10.018;2023-04-09T08:50:36;12.40;82.30
16287;DHT22;8251;53.568;10.018;2023-04-09T08:53:05;12.40;82.30
16287;DHT22;8251;53.568;10.018;2023-04-09T08:55:33;12.30;81.30
16287;DHT22;8251;53.568;10.018;2023-04-09T08:58:06;12.20;81.50
16287;DHT22;8251;53.568;10.018;2023-04-09T09:00:35;12.20;81.80
16287;DHT22;8251;53.568;10.018;2023-04-09T09:03:04;12.30;81.80
16287;DHT22;8251;53.568;10.018;2023-04-09T09:05:38;12.20;81.20
16287;DHT22;8251;53.568;10.018;2023-04-09T09:08:06;12.30;81.30
16287;DHT22;8251;53.568;10.018;2023-04-09T09:10:38;12.30;81.30
16287;DHT22;8251;53.568;10.018;2023-04-09T09:13:20;12.40;81.30
16287;DHT22;8251;53.568;10.018;2023-04-09T09:15:48;12.50;81.00
16287;DHT22;8251;53.568;10.018;2023-04-09T09:18:20;12.50;80.90
16287;DHT22;8251;53.568;10.018;2023-04-09T09:20:48;12.50;80.30
16287;DHT22;8251;53.568;10.018;2023-04-09T09:23:15;12.50;80.40
16287;DHT22;8251;53.568;10.018;2023-04-09T09:25:56;12.50;80.50
16287;DHT22;8251;53.568;10.018;2023-04-09T09:28:33;12.50;80.30
16287;DHT22;8251;53.568;10.018;2023-04-09T09:31:07;12.60;80.20
16287;DHT22;8251;53.568;10.018;2023-04-09T09:33:34;12.60;80.20
16287;DHT22;8251;53.568;10.018;2023-04-09T09:36:03;12.60;80.40
16287;DHT22;8251;53.568;10.018;2023-04-09T09:38:30;12.60;80.30
16287;DHT22;8251;53.568;10.018;2023-04-09T09:40:58;12.60;80.20
16287;DHT22;8251;53.568;10.018;2023-04-09T09:43:42;12.60;80.10
16287;DHT22;8251;53.568;10.018;2023-04-09T09:46:10;12.60;80.10
16287;DHT22;8251;53.568;10.018;2023-04-09T09:48:37;12.70;79.60
16287;DHT22;8251;53.568;10.018;2023-04-09T09:51:08;12.60;79.30
16287;DHT22;8251;53.568;10.018;2023-04-09T09:53:36;12.60;79.70
16287;DHT22;8251;53.568;10.018;2023-04-09T09:56:05;12.60;79.90
16287;DHT22;8251;53.568;10.018;2023-04-09T09:58:36;12.60;79.10
16287;DHT22;8251;53.568;10.018;2023-04-09T10:01:07;12.60;79.40
16287;DHT22;8251;53.568;10.018;2023-04-09T10:03:39;12.60;79.30
16287;DHT22;8251;53.568;10.018;2023-04-09T10:06:08;12.70;79.00
16287;DHT22;8251;53.568;10.018;2023-04-09T10:08:37;12.80;79.30
16287;DHT22;8251;53.568;10.018;2023-04-09T10:11:10;12.90;79.20
16287;DHT22;8251;53.568;10.018;2023-04-09T10:13:39;13.10;79.00
16287;DHT22;8251;53.568;10.018;2023-04-09T10:16:08;13.10;78.10
16287;DHT22;8251;53.568;10.018;2023-04-09T10:18:38;13.20;77.70
16287;DHT22;8251;53.568;10.018;2023-04-09T10:21:13;13.30;77.40
16287;DHT22;8251;53.568;10.018;2023-04-09T10:23:41;13.40;76.80
16287;DHT22;8251;53.568;10.018;2023-04-09T10:26:11;13.40;76.50
16287;DHT22;8251;53.568;10.018;2023-04-09T10:28:38;13.50;76.10
16287;DHT22;8251;53.568;10.018;2023-04-09T10:31:06;13.60;75.90
16287;DHT22;8251;53.568;10.018;2023-04-09T10:33:35;13.70;75.40
16287;DHT22;8251;53.568;10.018;2023-04-09T10:36:10;13.80;75.00
16287;DHT22;8251;53.568;10.018;2023-04-09T10:38:40;13.90;75.00
16287;DHT22;8251;53.568;10.018;2023-04-09T10:41:13;13.90;75.10
16287;DHT22;8251;53.568;10.018;2023-04-09T10:43:45;13.90;74.20
16287;DHT22;8251;53.568;10.018;2023-04-09T10:46:26;13.90;74.10
16287;DHT22;8251;53.568;10.018;2023-04-09T10:49:10;13.90;73.90
16287;DHT22;8251;53.568;10.018;2023-04-09T10:51:41;13.70;73.70
16287;DHT22;8251;53.568;10.018;2023-04-09T10:54:39;13.70;74.50
16287;DHT22;8251;53.568;10.018;2023-04-09T10:57:15;13.70;74.60
16287;DHT22;8251;53.568;10.018;2023-04-09T10:59:44;13.80;75.60
16287;DHT22;8251;53.568;10.018;2023-04-09T11:02:44;13.80;74.40
16287;DHT22;8251;53.568;10.018;2023-04-09T11:05:20;13.90;74.40
16287;DHT22;8251;53.568;10.018;2023-04-09T11:07:52;13.90;74.10
16287;DHT22;8251;53.568;10.018;2023-04-09T11:10:22;13.90;74.20
16287;DHT22;8251;53.568;10.018;2023-04-09T11:12:49;14.00;74.60
16287;DHT22;8251;53.568;10.018;2023-04-09T11:15:16;14.00;74.20
16287;DHT22;8251;53.568;10.018;2023-04-09T11:17:48;14.10;74.10
16287;DHT22;8251;53.568;10.018;2023-04-09T11:20:20;14.30;72.60
16287;DHT22;8251;53.568;10.018;2023-04-09T11:22:48;14.40;72.20
16287;DHT22;8251;53.568;10.018;2023-04-09T11:25:18;14.60;71.70
16287;DHT22;8251;53.568;10.018;2023-04-09T11:27:53;14.90;70.80
16287;DHT22;8251;53.568;10.018;2023-04-09T11:30:21;15.20;70.30
16287;DHT22;8251;53.568;10.018;2023-04-09T11:32:48;15.40;69.90
16287;DHT22;8251;53.568;10.018;2023-04-09T11:35:17;15.60;69.40
16287;DHT22;8251;53.568;10.018;2023-04-09T11:37:45;15.80;68.40
16287;DHT22;8251;53.568;10.018;2023-04-09T11:40:16;15.90;67.90
16287;DHT22;8251;53.568;10.018;2023-04-09T11:42:51;16.00;67.60
16287;DHT22;8251;53.568;10.018;2023-04-09T11:45:21;16.10;67.20
16287;DHT22;8251;53.568;10.018;2023-04-09T11:47:49;16.40;67.60
16287;DHT22;8251;53.568;10.018;2023-04-09T11:50:21;16.70;65.80
16287;DHT22;8251;53.568;10.018;2023-04-09T11:52:50;16.90;64.80
16287;DHT22;8251;53.568;10.018;2023-04-09T11:55:26;17.20;63.90
16287;DHT22;8251;53.568;10.018;2023-04-09T11:57:57;17.20;62.70
16287;DHT22;8251;53.568;10.018;2023-04-09T12:00:28;17.20;62.70
16287;DHT22;8251;53.568;10.018;2023-04-09T12:03:00;17.30;62.70
16287;DHT22;8251;53.568;10.018;2023-04-09T12:05:29;17.40;62.70
16287;DHT22;8251;53.568;10.018;2023-04-09T12:07:57;17.50;62.20
16287;DHT22;8251;53.568;10.018;2023-04-09T12:10:29;17.70;61.60
16287;DHT22;8251;53.568;10.018;2023-04-09T12:13:02;18.00;61.60
16287;DHT22;8251;53.568;10.018;2023-04-09T12:15:33;18.30;60.70
16287;DHT22;8251;53.568;10.018;2023-04-09T12:18:00;18.50;58.60
16287;DHT22;8251;53.568;10.018;2023-04-09T12:20:30;18.60;58.20
16287;DHT22;8251;53.568;10.018;2023-04-09T12:22:58;18.60;57.90
16287;DHT22;8251;53.568;10.018;2023-04-09T12:25:26;18.70;57.40
16287;DHT22;8251;53.568;10.018;2023-04-09T12:27:55;18.80;57.60
16287;DHT22;8251;53.568;10.018;2023-04-09T12:30:29;19.00;57.30
16287;DHT22;8251;53.568;10.018;2023-04-09T12:32:56;19.10;57.00
16287;DHT22;8251;53.568;10.018;2023-04-09T12:35:24;19.20;56.80
16287;DHT22;8251;53.568;10.018;2023-04-09T12:37:51;19.50;56.70
16287;DHT22;8251;53.568;10.018;2023-04-09T12:40:19;19.60;55.20
16287;DHT22;8251;53.568;10.018;2023-04-09T12:42:46;19.70;54.50
16287;DHT22;8251;53.568;10.018;2023-04-09T12:45:14;19.90;54.70
16287;DHT22;8251;53.568;10.018;2023-04-09T12:47:43;20.00;54.00
16287;DHT22;8251;53.568;10.018;2023-04-09T12:50:13;20.00;53.60
16287;DHT22;8251;53.568;10.018;2023-04-09T12:52:41;19.90;53.70
16287;DHT22;8251;53.568;10.018;2023-04-09T12:55:09;19.90;55.10
16287;DHT22;8251;53.568;10.018;2023-04-09T12:57:37;20.00;53.50
16287;DHT22;8251;53.568;10.018;2023-04-09T13:00:06;20.00;53.30
16287;DHT22;8251;53.568;10.018;2023-04-09T13:02:34;20.10;53.40
16287;DHT22;8251;53.568;10.018;2023-04-09T13:05:06;20.20;52.50
16287;DHT22;8251;53.568;10.018;2023-04-09T13:07:33;20.30;52.50
16287;DHT22;8251;53.568;10.018;2023-04-09T13:10:02;20.30;52.20
16287;DHT22;8251;53.568;10.018;2023-04-09T13:12:30;20.40;52.40
16287;DHT22;8251;53.568;10.018;2023-04-09T13:14:58;20.40;52.60
16287;DHT22;8251;53.568;10.018;2023-04-09T13:17:26;20.40;51.80
16287;DHT22;8251;53.568;10.018;2023-04-09T13:19:53;20.40;51.50
16287;DHT22;8251;53.568;10.018;2023-04-09T13:22:22;20.30;51.80
16287;DHT22;8251;53.568;10.018;2023-04-09T13:24:50;20.30;51.40
16287;DHT22;8251;53.568;10.018;2023-04-09T13:27:20;20.30;51.80
16287;DHT22;8251;53.568;10.018;2023-04-09T13:29:47;20.30;51.70
16287;DHT22;8251;53.568;10.018;2023-04-09T13:32:17;20.30;51.50
16287;DHT22;8251;53.568;10.018;2023-04-09T13:34:46;20.30;51.60
16287;DHT22;8251;53.568;10.018;2023-04-09T13:37:13;20.30;51.30
16287;DHT22;8251;53.568;10.018;2023-04-09T13:39:42;20.20;51.80
16287;DHT22;8251;53.568;10.018;2023-04-09T13:42:09;20.10;52.10
16287;DHT22;8251;53.568;10.018;2023-04-09T13:44:39;20.10;52.20
16287;DHT22;8251;53.568;10.018;2023-04-09T13:47:06;20.00;52.50
16287;DHT22;8251;53.568;10.018;2023-04-09T13:49:35;20.00;52.80
16287;DHT22;8251;53.568;10.018;2023-04-09T13:52:02;20.00;52.90
16287;DHT22;8251;53.568;10.018;2023-04-09T13:54:32;19.90;52.40
16287;DHT22;8251;53.568;10.018;2023-04-09T13:57:02;19.70;52.60
16287;DHT22;8251;53.568;10.018;2023-04-09T13:59:29;19.70;52.70
16287;DHT22;8251;53.568;10.018;2023-04-09T14:01:57;19.50;52.60
16287;DHT22;8251;53.568;10.018;2023-04-09T14:04:25;19.30;52.90
16287;DHT22;8251;53.568;10.018;2023-04-09T14:06:56;19.20;53.40
16287;DHT22;8251;53.568;10.018;2023-04-09T14:09:25;19.10;53.50
16287;DHT22;8251;53.568;10.018;2023-04-09T14:11:52;19.00;53.90
16287;DHT22;8251;53.568;10.018;2023-04-09T14:14:22;19.00;53.80
16287;DHT22;8251;53.568;10.018;2023-04-09T14:16:49;18.80;53.30
16287;DHT22;8251;53.568;10.018;2023-04-09T14:19:16;18.80;53.80
16287;DHT22;8251;53.568;10.018;2023-04-09T14:21:43;18.80;54.30
16287;DHT22;8251;53.568;10.018;2023-04-09T14:24:10;18.90;54.00
16287;DHT22;8251;53.568;10.018;2023-04-09T14:26:37;18.90;54.00
16287;DHT22;8251;53.568;10.018;2023-04-09T14:29:07;18.80;51.60
16287;DHT22;8251;53.568;10.018;2023-04-09T14:31:36;18.90;51.60
16287;DHT22;8251;53.568;10.018;2023-04-09T14:34:07;18.90;54.60
16287;DHT22;8251;53.568;10.018;2023-04-09T14:36:34;18.80;55.30
16287;DHT22;8251;53.568;10.018;2023-04-09T14:39:12;18.80;55.30
16287;DHT22;8251;53.568;10.018;2023-04-09T14:41:39;18.80;55.40
16287;DHT22;8251;53.568;10.018;2023-04-09T14:44:06;18.70;54.70
16287;DHT22;8251;53.568;10.018;2023-04-09T14:46:36;18.70;54.80
16287;DHT22;8251;53.568;10.018;2023-04-09T14:49:03;18.60;55.40
16287;DHT22;8251;53.568;10.018;2023-04-09T14:51:33;18.60;55.60
16287;DHT22;8251;53.568;10.018;2023-04-09T14:54:00;18.60;55.40
16287;DHT22;8251;53.568;10.018;2023-04-09T14:56:27;18.60;55.20
16287;DHT22;8251;53.568;10.018;2023-04-09T14:58:54;18.60;55.10
16287;DHT22;8251;53.568;10.018;2023-04-09T15:01:21;18.70;55.00
16287;DHT22;8251;53.568;10.018;2023-04-09T15:03:49;18.70;55.20
16287;DHT22;8251;53.568;10.018;2023-04-09T15:06:18;18.70;55.00
16287;DHT22;8251;53.568;10.018;2023-04-09T15:08:48;18.80;54.80
16287;DHT22;8251;53.568;10.018;2023-04-09T15:11:18;18.70;55.00
16287;DHT22;8251;53.568;10.018;2023-04-09T15:13:47;18.70;55.40
16287;DHT22;8251;53.568;10.018;2023-04-09T15:16:19;18.70;55.70
16287;DHT22;8251;53.568;10.018;2023-04-09T15:18:48;18.80;55.50
16287;DHT22;8251;53.568;10.018;2023-04-09T15:21:16;18.80;54.10
16287;DHT22;8251;53.568;10.018;2023-04-09T15:23:43;18.80;54.70
16287;DHT22;8251;53.568;10.018;2023-04-09T15:26:14;18.90;54.50
16287;DHT22;8251;53.568;10.018;2023-04-09T15:28:50;19.00;54.30
16287;DHT22;8251;53.568;10.018;2023-04-09T15:31:22;18.90;53.60
16287;DHT22;8251;53.568;10.018;2023-04-09T15:33:50;18.90;54.20
16287;DHT22;8251;53.568;10.018;2023-04-09T15:36:18;18.80;54.50
16287;DHT22;8251;53.568;10.018;2023-04-09T15:38:45;18.60;54.70
16287;DHT22;8251;53.568;10.018;2023-04-09T15:41:12;18.60;55.10